GUCY/CKY METAR and TAF weather

Enter ICAO airport designator
Station Type Date Time Source
GUCY METAR 2019/11/20 16:00 UTC NOAA

GUCY 201600Z 22010KT 9999 FEW015 SCT110 31/26 Q1009 NOSIG


Station Type Date Time Source
GUCY Decoded METAR 2019/11/20 16:00 UTC NOAA

Conakry / Gbessia, Guinea (GUCY) 09-34N 013-37W 26M
Nov 20, 2019 - 11:00 AM EST / 2019.11.20 1600 UTC
Wind: from the SW (220 degrees) at 12 MPH (10 KT):0
Visibility: greater than 7 mile(s):0
Sky conditions: partly cloudy
Temperature: 87 F (31 C)
Heat index: 99.7 F (37.6 C):1
Dew Point: 78 F (26 C)
Relative Humidity: 74%
Pressure (altimeter): 29.80 in. Hg (1009 hPa)
ob: GUCY 201600Z 22010KT 9999 FEW015 SCT110 31/26 Q1009 NOSIG
cycle: 16

Station Type Date Time Source
GUCY TAF 2019/11/20 12:59 UTC NOAA

TAF GUCY 201100Z 2012/2118 28008KT 9999 SCT015 SCT110 PROB30
TEMPO 2022/2102 TS SCT013 FEW023CB SCT100
BECMG 2103/2108 VRB02KT

Example: see airport list